Time;durP1;ratioP1;P1;durP2;ratioP2;P2;SDS_P1;SDS_P2;PMS_P1;PMS_P2;Temp;Humidity;BMP_temperature;BMP_pressure;BME280_temperature;BME280_humidity;BME280_pressure;Samples;Min_cycle;Max_cycle;Signal;HPM_P1;HPM_P2
2023/07/15 00:00:14;;;;;;;5.30;3.58;;;20.00;99.90;;;;;;5038915;28;20045;-63
2023/07/15 00:02:42;;;;;;;7.03;3.95;;;20.00;99.90;;;;;;5042892;28;20037;-63
2023/07/15 00:05:16;;;;;;;7.70;4.00;;;20.00;99.90;;;;;;5042333;28;20041;-63
2023/07/15 00:07:42;;;;;;;5.50;3.80;;;19.90;99.90;;;;;;5031425;28;20041;-63
2023/07/15 00:10:08;;;;;;;5.53;3.40;;;19.90;99.90;;;;;;5049205;28;20041;-63
2023/07/15 00:12:33;;;;;;;4.82;3.53;;;19.90;99.90;;;;;;5046297;28;20124;-63
2023/07/15 00:14:59;;;;;;;5.22;3.45;;;19.90;99.90;;;;;;5038727;28;20051;-63
2023/07/15 00:17:25;;;;;;;6.47;3.65;;;19.90;99.90;;;;;;5050106;28;20072;-62
2023/07/15 00:19:50;;;;;;;5.75;3.88;;;19.90;99.90;;;;;;5042153;28;20136;-62
2023/07/15 00:22:16;;;;;;;5.68;3.40;;;19.90;99.90;;;;;;5049209;28;20025;-62
2023/07/15 00:24:42;;;;;;;5.15;3.67;;;19.90;99.90;;;;;;5041626;28;20124;-63
2023/07/15 00:27:08;;;;;;;5.40;3.70;;;19.80;99.90;;;;;;5050595;28;20033;-63
2023/07/15 00:29:34;;;;;;;7.57;3.50;;;19.80;99.90;;;;;;5049371;28;20086;-62
2023/07/15 00:32:04;;;;;;;6.40;3.45;;;19.80;99.90;;;;;;5041714;28;20377;-62
2023/07/15 00:34:29;;;;;;;7.63;3.73;;;19.80;99.90;;;;;;5048628;28;20040;-63
2023/07/15 00:36:55;;;;;;;8.10;4.07;;;19.80;99.90;;;;;;5052685;28;20360;-63
2023/07/15 00:39:21;;;;;;;6.15;4.05;;;19.80;99.90;;;;;;5046651;28;20037;-62
2023/07/15 00:41:46;;;;;;;6.57;3.75;;;19.80;99.90;;;;;;5041139;28;20040;-63
2023/07/15 00:44:15;;;;;;;5.30;3.53;;;19.80;99.90;;;;;;5041744;28;20045;-63
2023/07/15 00:47:00;;;;;;;5.65;3.90;;;19.80;99.90;;;;;;5045897;28;20072;-63
2023/07/15 00:49:30;;;;;;;5.57;3.85;;;19.80;99.90;;;;;;5038488;28;20056;-63
2023/07/15 00:52:02;;;;;;;5.68;3.53;;;19.80;99.90;;;;;;5042567;28;20521;-63
2023/07/15 00:54:35;;;;;;;4.80;3.45;;;19.80;99.90;;;;;;5046084;28;20550;-62
2023/07/15 00:57:01;;;;;;;5.75;3.78;;;19.80;99.90;;;;;;5053657;28;20041;-63
2023/07/15 00:59:28;;;;;;;4.47;3.53;;;19.80;99.90;;;;;;5053232;28;20600;-63
2023/07/15 01:01:55;;;;;;;9.05;3.90;;;19.80;99.90;;;;;;5035669;28;20136;-63
2023/07/15 01:04:21;;;;;;;5.82;4.22;;;19.80;99.90;;;;;;5040929;28;20116;-63
2023/07/15 01:06:47;;;;;;;8.43;3.35;;;19.80;99.90;;;;;;5047515;28;20124;-62
2023/07/15 01:09:13;;;;;;;6.15;3.80;;;19.80;99.90;;;;;;5045383;28;20040;-62
2023/07/15 01:11:39;;;;;;;7.90;3.75;;;19.80;99.90;;;;;;5052606;28;20048;-62
2023/07/15 01:14:05;;;;;;;5.82;3.35;;;19.80;99.90;;;;;;5054180;28;20048;-62
2023/07/15 01:16:32;;;;;;;8.23;4.25;;;19.80;99.90;;;;;;5054371;28;20081;-62
2023/07/15 01:18:58;;;;;;;5.60;3.97;;;19.80;99.90;;;;;;5051965;28;20063;-62
2023/07/15 01:21:27;;;;;;;9.18;3.97;;;19.80;99.90;;;;;;5052418;28;20033;-62
2023/07/15 01:23:53;;;;;;;8.45;3.72;;;19.80;99.90;;;;;;5042674;28;20044;-62
2023/07/15 01:26:19;;;;;;;5.15;3.63;;;19.80;99.90;;;;;;5039566;28;20037;-62
2023/07/15 01:28:44;;;;;;;7.68;4.30;;;19.80;99.90;;;;;;5034088;28;20060;-62
2023/07/15 01:31:10;;;;;;;4.93;3.50;;;19.80;99.90;;;;;;5043629;28;20079;-62
2023/07/15 01:33:36;;;;;;;9.50;3.75;;;19.80;99.90;;;;;;5042307;28;20037;-62
2023/07/15 01:36:04;;;;;;;6.93;4.03;;;19.90;99.90;;;;;;5050865;28;20509;-62
2023/07/15 01:38:30;;;;;;;6.50;4.03;;;19.90;99.90;;;;;;5049239;28;20040;-62
2023/07/15 01:40:56;;;;;;;6.35;4.00;;;19.80;99.90;;;;;;5035410;28;20033;-62
2023/07/15 01:43:21;;;;;;;4.75;3.92;;;19.90;99.90;;;;;;5020313;28;20040;-62
2023/07/15 01:45:47;;;;;;;5.32;3.40;;;19.80;99.90;;;;;;5037389;28;20454;-62
2023/07/15 01:48:12;;;;;;;6.13;3.30;;;19.90;99.90;;;;;;5036954;28;20026;-62
2023/07/15 01:50:39;;;;;;;4.25;3.35;;;19.90;99.90;;;;;;5033759;28;20512;-63
2023/07/15 01:53:05;;;;;;;5.90;3.47;;;19.90;99.90;;;;;;5035236;28;20534;-63
2023/07/15 01:55:31;;;;;;;6.70;3.83;;;19.90;99.90;;;;;;5041450;28;20045;-62
2023/07/15 01:57:57;;;;;;;8.68;3.40;;;19.80;99.90;;;;;;5033650;28;20056;-63
2023/07/15 02:00:22;;;;;;;5.45;3.60;;;19.90;99.90;;;;;;5032907;28;20044;-63
2023/07/15 02:02:49;;;;;;;6.30;3.78;;;19.90;99.90;;;;;;5039123;28;20037;-63
2023/07/15 02:05:15;;;;;;;5.53;3.83;;;19.90;99.90;;;;;;5042501;28;20034;-63
2023/07/15 02:07:41;;;;;;;5.30;3.92;;;19.90;99.90;;;;;;5047054;28;20060;-63
2023/07/15 02:10:07;;;;;;;5.22;3.78;;;19.80;99.90;;;;;;5038838;28;20095;-63
2023/07/15 02:12:33;;;;;;;7.72;3.75;;;19.80;99.90;;;;;;5039713;28;20159;-63
2023/07/15 02:14:59;;;;;;;7.53;3.92;;;19.80;99.90;;;;;;5042152;28;20098;-63
2023/07/15 02:17:25;;;;;;;4.68;3.90;;;19.80;99.90;;;;;;5048076;28;20041;-63
2023/07/15 02:19:51;;;;;;;5.68;3.45;;;19.70;99.90;;;;;;5033332;28;20068;-63
2023/07/15 02:22:17;;;;;;;6.45;3.40;;;19.70;99.90;;;;;;5035309;28;20037;-63
2023/07/15 02:24:43;;;;;;;5.30;3.80;;;19.70;99.90;;;;;;5041133;28;20037;-63
2023/07/15 02:27:08;;;;;;;6.95;4.00;;;19.60;99.90;;;;;;5045429;28;20056;-63
2023/07/15 02:29:34;;;;;;;5.93;3.85;;;19.60;99.90;;;;;;5043269;28;20044;-63
2023/07/15 02:32:00;;;;;;;7.95;3.60;;;19.60;99.90;;;;;;5048702;28;20049;-63
2023/07/15 02:34:26;;;;;;;5.70;4.03;;;19.60;99.90;;;;;;5041245;28;20067;-63
2023/07/15 02:36:52;;;;;;;7.38;3.85;;;19.60;99.90;;;;;;5041266;28;20044;-62
2023/07/15 02:39:18;;;;;;;5.32;3.90;;;19.60;99.90;;;;;;5043152;28;20442;-63
2023/07/15 02:41:44;;;;;;;6.57;3.40;;;19.60;99.90;;;;;;5039430;28;20053;-63
2023/07/15 02:44:10;;;;;;;5.10;3.60;;;19.60;99.90;;;;;;5032743;28;20041;-63
2023/07/15 02:46:35;;;;;;;4.28;3.30;;;19.60;99.90;;;;;;5033110;28;20033;-63
2023/07/15 02:49:02;;;;;;;5.57;3.00;;;19.60;99.90;;;;;;5039287;28;20087;-63
2023/07/15 02:51:28;;;;;;;4.60;3.53;;;19.60;99.90;;;;;;5038786;28;20041;-63
2023/07/15 02:53:54;;;;;;;5.13;3.22;;;19.60;99.90;;;;;;5046497;28;20053;-63
2023/07/15 02:56:20;;;;;;;5.28;3.47;;;19.60;99.90;;;;;;5040210;28;20038;-63
2023/07/15 02:58:45;;;;;;;4.82;2.70;;;19.60;99.90;;;;;;5043958;28;20509;-62
2023/07/15 03:01:11;;;;;;;6.10;3.67;;;19.60;99.90;;;;;;5032455;28;20030;-62
2023/07/15 03:03:37;;;;;;;6.22;3.70;;;19.60;99.90;;;;;;5040729;28;20041;-63
2023/07/15 03:06:03;;;;;;;9.10;3.30;;;19.60;99.90;;;;;;5041000;28;20033;-63
2023/07/15 03:08:31;;;;;;;6.00;3.38;;;19.50;99.90;;;;;;5040723;28;20045;-63
2023/07/15 03:10:57;;;;;;;4.90;2.95;;;19.40;99.90;;;;;;5030941;28;20043;-63
2023/07/15 03:13:25;;;;;;;7.70;3.45;;;19.40;99.90;;;;;;5047830;28;20445;-63
2023/07/15 03:15:52;;;;;;;4.57;3.47;;;19.40;99.90;;;;;;5041611;28;20043;-63
2023/07/15 03:18:18;;;;;;;4.97;3.58;;;19.30;99.90;;;;;;5040711;28;20033;-63
2023/07/15 03:20:43;;;;;;;5.45;3.28;;;19.30;99.90;;;;;;5036013;28;20116;-63
2023/07/15 03:23:09;;;;;;;4.18;2.83;;;19.20;99.90;;;;;;5040951;28;20455;-62
2023/07/15 03:25:34;;;;;;;6.28;3.00;;;19.20;99.90;;;;;;5049928;28;20048;-63
2023/07/15 03:28:00;;;;;;;3.58;2.63;;;19.20;99.90;;;;;;5051737;28;20041;-62
2023/07/15 03:30:26;;;;;;;4.30;3.00;;;19.30;99.90;;;;;;5044263;28;20073;-63
2023/07/15 03:32:56;;;;;;;4.90;2.80;;;19.30;99.90;;;;;;5038290;28;20376;-63
2023/07/15 03:35:22;;;;;;;5.22;2.70;;;19.40;99.90;;;;;;5035765;28;20455;-63
2023/07/15 03:37:47;;;;;;;5.00;3.03;;;19.50;99.90;;;;;;5035116;28;20120;-63
2023/07/15 03:40:13;;;;;;;4.60;2.53;;;19.50;99.90;;;;;;5035154;28;20045;-63
2023/07/15 03:42:39;;;;;;;4.63;2.80;;;19.50;99.90;;;;;;5040451;28;20040;-62
2023/07/15 03:45:06;;;;;;;3.00;2.13;;;19.60;99.90;;;;;;5049931;28;20137;-63
2023/07/15 03:47:33;;;;;;;5.45;2.50;;;19.60;99.90;;;;;;5049746;28;20197;-63
2023/07/15 03:50:00;;;;;;;6.43;2.63;;;19.70;99.90;;;;;;5032860;28;20041;-63
2023/07/15 03:52:25;;;;;;;5.97;2.58;;;19.70;99.90;;;;;;5032879;28;20041;-63
2023/07/15 03:54:51;;;;;;;5.95;2.42;;;19.70;99.90;;;;;;5043752;28;20037;-63
2023/07/15 03:57:17;;;;;;;3.83;2.90;;;19.80;99.90;;;;;;5039665;28;20033;-63
2023/07/15 03:59:42;;;;;;;6.07;2.40;;;19.80;99.90;;;;;;5039967;28;20095;-63
2023/07/15 04:02:08;;;;;;;4.90;2.65;;;19.80;99.90;;;;;;5035375;28;20038;-63
2023/07/15 04:04:34;;;;;;;5.57;2.67;;;19.80;99.90;;;;;;5038758;28;20423;-63
2023/07/15 04:07:02;;;;;;;4.30;2.45;;;19.80;99.90;;;;;;5045879;28;20094;-63
2023/07/15 04:09:28;;;;;;;4.80;2.33;;;19.80;99.90;;;;;;5051002;28;20072;-63
2023/07/15 04:11:55;;;;;;;5.53;3.00;;;19.80;99.90;;;;;;5040499;28;20479;-62
2023/07/15 04:14:21;;;;;;;6.18;3.10;;;19.80;99.90;;;;;;5038788;28;20075;-62
2023/07/15 04:16:47;;;;;;;6.80;2.90;;;19.70;99.90;;;;;;5031375;28;20072;-62
2023/07/15 04:19:13;;;;;;;3.15;2.40;;;19.80;99.90;;;;;;5039309;28;20033;-62
2023/07/15 04:21:39;;;;;;;5.88;2.63;;;19.70;99.90;;;;;;5037865;28;20037;-62
2023/07/15 04:24:05;;;;;;;3.90;2.42;;;19.80;99.90;;;;;;5035119;28;20038;-62
2023/07/15 04:26:30;;;;;;;5.07;2.78;;;19.80;99.90;;;;;;5031728;28;20069;-62
2023/07/15 04:28:56;;;;;;;4.18;2.55;;;19.80;99.90;;;;;;5039307;28;20516;-63
2023/07/15 04:31:22;;;;;;;3.97;2.90;;;19.80;99.90;;;;;;5048811;28;20048;-62
2023/07/15 04:33:49;;;;;;;5.18;2.60;;;19.80;99.90;;;;;;5041716;28;20403;-62
2023/07/15 04:36:20;;;;;;;5.72;2.60;;;19.80;99.90;;;;;;5038769;28;20046;-63
2023/07/15 04:38:46;;;;;;;6.20;2.70;;;19.80;99.90;;;;;;5036788;28;20037;-62
2023/07/15 04:41:13;;;;;;;4.82;2.53;;;19.80;99.90;;;;;;5039634;28;20055;-62
2023/07/15 04:43:38;;;;;;;5.00;2.65;;;19.80;99.90;;;;;;5047973;28;20037;-62
2023/07/15 04:46:05;;;;;;;4.32;2.95;;;19.80;99.90;;;;;;5040341;28;20037;-62
2023/07/15 04:48:31;;;;;;;7.18;2.70;;;19.90;99.90;;;;;;5037961;28;20036;-62
2023/07/15 04:50:56;;;;;;;6.82;3.05;;;19.80;99.90;;;;;;5037956;28;20087;-63
2023/07/15 04:53:22;;;;;;;4.30;2.60;;;19.90;99.90;;;;;;5041967;28;20043;-62
2023/07/15 04:55:49;;;;;;;6.47;2.60;;;19.90;99.90;;;;;;5049271;28;20132;-63
2023/07/15 04:58:17;;;;;;;6.05;2.80;;;19.90;99.90;;;;;;5039222;28;20033;-62
2023/07/15 05:00:44;;;;;;;8.27;3.08;;;20.00;99.90;;;;;;5039039;28;20116;-64
2023/07/15 05:03:09;;;;;;;4.50;2.88;;;20.00;99.90;;;;;;5062250;22;20072;-63
2023/07/15 05:05:35;;;;;;;3.33;2.50;;;20.10;99.90;;;;;;5045448;28;20092;-64
2023/07/15 05:08:09;;;;;;;4.93;2.58;;;20.20;99.90;;;;;;5049201;28;20036;-64
2023/07/15 05:10:35;;;;;;;2.95;2.60;;;20.30;99.90;;;;;;5044535;28;20033;-64
2023/07/15 05:13:01;;;;;;;2.53;2.03;;;20.40;99.90;;;;;;5028886;28;20033;-64
2023/07/15 05:15:28;;;;;;;3.17;2.45;;;20.50;99.90;;;;;;5030756;28;20033;-63
2023/07/15 05:17:54;;;;;;;5.28;2.30;;;20.60;99.90;;;;;;5030196;28;20099;-64
2023/07/15 05:20:19;;;;;;;5.57;2.33;;;20.60;99.90;;;;;;5035019;28;20120;-64
2023/07/15 05:22:45;;;;;;;5.07;2.63;;;20.70;99.90;;;;;;5027500;28;20037;-64
2023/07/15 05:25:12;;;;;;;5.47;2.50;;;20.80;99.90;;;;;;5032856;28;20033;-64
2023/07/15 05:27:38;;;;;;;4.70;2.70;;;20.90;99.90;;;;;;5032036;28;20247;-64
2023/07/15 05:30:04;;;;;;;4.72;2.70;;;21.10;99.90;;;;;;5031012;28;20124;-64
2023/07/15 05:32:30;;;;;;;6.45;2.80;;;21.10;99.90;;;;;;5032329;28;20052;-64
2023/07/15 05:34:56;;;;;;;5.60;2.80;;;21.10;99.90;;;;;;5033407;28;20037;-64
2023/07/15 05:37:21;;;;;;;2.42;2.13;;;21.20;99.90;;;;;;5033548;28;20042;-63
2023/07/15 05:39:47;;;;;;;4.07;2.42;;;21.30;99.90;;;;;;5026317;28;20030;-64
2023/07/15 05:42:12;;;;;;;4.47;2.90;;;21.40;99.90;;;;;;5027570;28;20634;-64
2023/07/15 05:44:38;;;;;;;4.15;2.50;;;21.40;99.90;;;;;;5024564;28;20068;-64
2023/07/15 05:47:04;;;;;;;4.85;2.65;;;21.50;99.90;;;;;;5033376;28;20074;-63
2023/07/15 05:49:29;;;;;;;7.63;2.67;;;21.60;99.90;;;;;;5019545;28;20116;-66
2023/07/15 05:51:55;;;;;;;4.43;2.60;;;21.80;99.90;;;;;;5029646;28;20049;-66
2023/07/15 05:54:21;;;;;;;6.40;2.63;;;21.80;99.90;;;;;;5030337;28;20038;-66
2023/07/15 05:56:46;;;;;;;5.70;2.40;;;21.90;99.90;;;;;;5024403;28;20407;-66
2023/07/15 05:59:12;;;;;;;5.07;2.65;;;21.80;99.90;;;;;;5021171;28;20080;-67
2023/07/15 06:01:37;;;;;;;3.80;2.65;;;21.90;99.90;;;;;;5028475;28;20044;-68
2023/07/15 06:04:06;;;;;;;5.57;2.60;;;21.80;99.90;;;;;;5028751;28;20037;-67
2023/07/15 06:06:32;;;;;;;4.40;2.63;;;21.90;99.90;;;;;;5028861;28;20141;-68
2023/07/15 06:08:57;;;;;;;4.90;2.35;;;22.00;99.90;;;;;;5029450;28;20124;-68
2023/07/15 06:11:23;;;;;;;5.30;2.65;;;22.00;99.90;;;;;;5031597;28;20033;-67
2023/07/15 06:13:48;;;;;;;8.55;2.85;;;22.00;99.90;;;;;;5029950;28;20091;-67
2023/07/15 06:16:14;;;;;;;5.43;2.53;;;22.10;99.90;;;;;;5030801;28;20088;-68
2023/07/15 06:18:40;;;;;;;5.15;2.70;;;22.10;99.90;;;;;;5033640;28;20497;-67
2023/07/15 06:21:07;;;;;;;4.93;2.70;;;22.20;99.90;;;;;;5032244;28;20484;-68
2023/07/15 06:23:33;;;;;;;7.53;2.90;;;22.30;99.90;;;;;;5025390;28;20069;-68
2023/07/15 06:25:59;;;;;;;5.60;2.95;;;22.40;99.90;;;;;;5031094;28;20075;-68
2023/07/15 06:28:25;;;;;;;6.03;2.78;;;22.50;99.90;;;;;;5031337;28;20392;-67
2023/07/15 06:31:00;;;;;;;5.40;3.05;;;22.60;99.90;;;;;;5031838;28;20087;-68
2023/07/15 06:33:26;;;;;;;4.60;2.88;;;22.60;99.90;;;;;;5031703;28;20076;-67
2023/07/15 06:35:52;;;;;;;5.22;2.60;;;22.70;99.90;;;;;;5032158;28;20076;-68
2023/07/15 06:38:18;;;;;;;7.50;2.88;;;22.80;99.90;;;;;;5031563;28;20056;-68
2023/07/15 06:40:43;;;;;;;5.47;2.78;;;22.90;99.90;;;;;;5027426;28;20060;-68
2023/07/15 06:43:09;;;;;;;8.43;3.00;;;22.90;99.90;;;;;;5030877;28;20033;-68
2023/07/15 06:45:35;;;;;;;5.10;2.88;;;23.00;99.90;;;;;;5032148;28;20108;-68
2023/07/15 06:48:00;;;;;;;9.27;2.75;;;23.20;99.90;;;;;;5024286;28;20522;-68
2023/07/15 06:50:27;;;;;;;5.13;2.92;;;23.20;99.90;;;;;;5030523;28;20041;-68
2023/07/15 06:52:53;;;;;;;4.63;2.65;;;23.30;99.90;;;;;;5032433;28;20041;-67
2023/07/15 06:55:18;;;;;;;4.38;2.60;;;23.40;99.90;;;;;;5032805;28;20033;-68
2023/07/15 06:57:44;;;;;;;6.10;2.85;;;23.50;99.90;;;;;;5031149;28;20460;-68
2023/07/15 07:00:10;;;;;;;5.78;2.75;;;23.60;99.90;;;;;;5033289;28;20075;-67
2023/07/15 07:02:36;;;;;;;3.90;2.90;;;23.80;99.90;;;;;;5032708;28;20037;-68
2023/07/15 07:05:01;;;;;;;6.32;2.95;;;23.80;99.90;;;;;;5026449;28;20045;-68
2023/07/15 07:07:27;;;;;;;4.65;2.70;;;24.00;99.90;;;;;;5029969;28;20076;-69
2023/07/15 07:09:52;;;;;;;5.13;2.75;;;24.00;99.90;;;;;;5039095;28;20037;-68
2023/07/15 07:12:18;;;;;;;5.05;3.17;;;24.10;99.90;;;;;;5036720;28;20049;-68
2023/07/15 07:14:44;;;;;;;4.28;2.70;;;24.20;99.90;;;;;;5029068;28;20120;-68
2023/07/15 07:17:09;;;;;;;5.80;2.70;;;24.20;99.90;;;;;;5030318;28;20049;-68
2023/07/15 07:19:35;;;;;;;4.65;2.55;;;24.30;99.90;;;;;;5024068;28;20123;-68
2023/07/15 07:22:00;;;;;;;4.75;2.70;;;24.40;99.90;;;;;;5029924;28;20091;-68
2023/07/15 07:24:26;;;;;;;6.22;3.08;;;24.60;99.90;;;;;;5026481;28;20034;-68
2023/07/15 07:26:52;;;;;;;3.47;2.42;;;24.70;99.90;;;;;;5032197;28;20072;-68
2023/07/15 07:29:17;;;;;;;5.25;2.55;;;24.80;99.90;;;;;;5028378;28;20041;-68
2023/07/15 07:31:43;;;;;;;3.83;2.67;;;24.80;99.90;;;;;;5030625;28;20041;-68
2023/07/15 07:34:08;;;;;;;4.38;2.50;;;24.90;99.90;;;;;;5031628;28;20045;-68
2023/07/15 07:36:34;;;;;;;3.17;2.10;;;24.90;99.90;;;;;;5027846;28;20046;-68
2023/07/15 07:39:00;;;;;;;4.72;2.20;;;25.00;99.90;;;;;;5030330;28;20037;-68
2023/07/15 07:41:25;;;;;;;2.90;2.20;;;25.10;99.90;;;;;;5030609;28;20065;-68
2023/07/15 07:43:51;;;;;;;4.95;2.15;;;25.20;99.90;;;;;;5031221;28;20399;-69
2023/07/15 07:46:16;;;;;;;3.78;2.58;;;25.20;99.90;;;;;;5027279;28;20044;-67
2023/07/15 07:48:42;;;;;;;3.40;2.17;;;25.00;99.90;;;;;;5024557;28;20128;-68
2023/07/15 07:51:07;;;;;;;4.80;2.33;;;24.90;99.90;;;;;;5029294;28;20052;-69
2023/07/15 07:53:33;;;;;;;3.10;2.03;;;24.80;99.90;;;;;;5024865;28;20637;-68
2023/07/15 07:55:59;;;;;;;2.38;1.85;;;24.70;99.90;;;;;;5027771;28;20046;-68
2023/07/15 07:58:24;;;;;;;3.90;2.28;;;24.80;99.90;;;;;;5027250;28;20049;-68
2023/07/15 08:00:50;;;;;;;4.25;2.30;;;24.90;99.90;;;;;;5025743;28;20030;-68
2023/07/15 08:03:16;;;;;;;2.95;1.88;;;25.10;99.90;;;;;;5027177;28;20080;-68
2023/07/15 08:05:46;;;;;;;2.83;1.90;;;25.30;99.90;;;;;;5019313;28;20044;-70
2023/07/15 08:08:12;;;;;;;;;;;25.30;99.90;;;;;;5023535;28;20045;-68
2023/07/15 08:10:38;;;;;;;2.90;1.75;;;25.40;99.90;;;;;;5022516;28;20298;-68
2023/07/15 08:13:05;;;;;;;3.78;1.90;;;25.60;99.90;;;;;;5013929;28;20072;-69
2023/07/15 08:15:32;;;;;;;1.95;1.70;;;25.70;99.90;;;;;;5018745;28;20439;-68
2023/07/15 08:17:58;;;;;;;2.45;1.50;;;25.80;99.90;;;;;;5029518;28;20041;-68
2023/07/15 08:20:23;;;;;;;2.53;1.70;;;25.90;99.90;;;;;;5031817;28;20029;-68
2023/07/15 08:22:49;;;;;;;3.42;1.52;;;26.00;99.90;;;;;;5031303;28;20112;-68
2023/07/15 08:25:14;;;;;;;4.97;1.63;;;26.00;99.90;;;;;;5030860;28;20084;-69
2023/07/15 08:27:40;;;;;;;2.65;1.67;;;26.10;99.90;;;;;;5030110;28;20029;-68
2023/07/15 08:30:07;;;;;;;2.08;1.60;;;26.20;99.90;;;;;;5030349;28;20476;-68
2023/07/15 08:32:32;;;;;;;3.45;1.63;;;26.20;99.90;;;;;;5031398;28;20526;-68
2023/07/15 08:35:04;;;;;;;3.13;2.00;;;26.20;99.90;;;;;;5030810;28;20073;-68
2023/07/15 08:37:29;;;;;;;4.80;1.77;;;26.40;99.90;;;;;;5031532;28;20116;-68
2023/07/15 08:39:55;;;;;;;2.92;1.90;;;26.40;99.90;;;;;;5030735;28;20128;-68
2023/07/15 08:42:23;;;;;;;2.85;1.65;;;26.50;99.90;;;;;;5030338;28;20037;-68
2023/07/15 08:44:50;;;;;;;4.15;1.42;;;26.60;99.90;;;;;;5029890;28;20079;-67
2023/07/15 08:47:21;;;;;;;2.33;1.50;;;26.60;99.90;;;;;;5031599;28;20475;-67
2023/07/15 08:49:49;;;;;;;2.20;1.67;;;26.70;99.90;;;;;;5031217;28;20046;-68
2023/07/15 08:52:21;;;;;;;3.70;2.00;;;26.70;99.90;;;;;;5031718;28;20037;-68
2023/07/15 08:54:51;;;;;;;3.80;2.20;;;26.70;99.90;;;;;;5034549;28;20068;-68
2023/07/15 08:57:22;;;;;;;3.58;2.15;;;26.80;99.90;;;;;;5035512;28;20069;-68
2023/07/15 08:59:54;;;;;;;3.20;2.25;;;26.90;99.90;;;;;;5035219;28;20487;-68
2023/07/15 09:02:20;;;;;;;3.17;1.80;;;26.80;99.90;;;;;;5031308;28;20029;-68
2023/07/15 09:04:46;;;;;;;3.00;1.95;;;26.80;99.90;;;;;;5034155;28;20121;-68
2023/07/15 09:07:12;;;;;;;4.70;2.15;;;26.80;99.90;;;;;;5035164;28;20041;-68
2023/07/15 09:09:39;;;;;;;3.67;1.75;;;26.80;99.90;;;;;;5035335;28;20177;-68
2023/07/15 09:12:06;;;;;;;5.18;1.50;;;26.80;99.90;;;;;;5034754;28;20095;-68
2023/07/15 09:14:41;;;;;;;3.33;2.10;;;26.90;99.90;;;;;;5033348;28;20132;-68
2023/07/15 09:17:06;;;;;;;4.15;2.00;;;27.00;99.90;;;;;;5034939;28;20037;-67
2023/07/15 09:19:34;;;;;;;4.03;2.00;;;27.00;99.90;;;;;;5032634;28;20071;-67
2023/07/15 09:22:05;;;;;;;5.22;1.83;;;27.00;99.90;;;;;;5033365;28;20079;-67
2023/07/15 09:24:32;;;;;;;4.40;2.10;;;27.00;99.90;;;;;;5034724;28;20034;-67
2023/07/15 09:27:00;;;;;;;2.38;1.75;;;26.80;99.90;;;;;;5034499;28;20052;-68
2023/07/15 09:29:25;;;;;;;2.42;1.73;;;26.80;99.90;;;;;;5034460;28;20076;-68
2023/07/15 09:31:51;;;;;;;3.30;2.05;;;26.80;99.90;;;;;;5034512;28;20099;-68
2023/07/15 09:34:17;;;;;;;2.78;2.15;;;26.70;99.90;;;;;;5034247;28;20049;-68
2023/07/15 09:36:44;;;;;;;4.05;2.22;;;26.60;99.90;;;;;;5025975;28;20116;-67
2023/07/15 09:39:19;;;;;;;3.20;2.10;;;26.60;99.90;;;;;;5033696;28;20048;-68
2023/07/15 09:41:59;;;;;;;3.33;2.00;;;26.70;99.90;;;;;;5034594;28;20037;-68
2023/07/15 09:44:40;;;;;;;3.25;2.10;;;26.80;99.90;;;;;;5033385;28;20049;-68
2023/07/15 09:47:05;;;;;;;;;;;26.80;99.90;;;;;;5034798;28;20503;-67
2023/07/15 09:49:32;;;;;;;5.15;2.10;;;26.80;99.80;;;;;;5034359;28;20018;-67
2023/07/15 09:51:59;;;;;;;4.18;1.80;;;26.80;99.90;;;;;;5024857;28;20043;-68
2023/07/15 09:54:26;;;;;;;3.47;2.10;;;26.80;99.90;;;;;;5033700;28;20507;-66
2023/07/15 09:56:58;;;;;;;4.25;1.60;;;26.80;99.70;;;;;;5033218;28;20515;-68
2023/07/15 09:59:28;;;;;;;4.50;1.75;;;26.80;99.30;;;;;;5034031;28;20043;-67
2023/07/15 10:01:56;;;;;;;2.88;1.75;;;26.90;99.20;;;;;;5034074;28;20038;-68
2023/07/15 10:04:31;;;;;;;5.53;1.77;;;26.80;98.90;;;;;;5033794;28;20048;-68
2023/07/15 10:06:57;;;;;;;2.80;1.58;;;26.80;99.10;;;;;;5031936;28;20116;-68
2023/07/15 10:09:23;;;;;;;4.30;2.15;;;26.80;99.50;;;;;;5033022;28;20560;-68
2023/07/15 10:11:51;;;;;;;3.55;1.95;;;26.90;99.20;;;;;;5033666;28;20052;-67
2023/07/15 10:14:19;;;;;;;2.22;1.73;;;26.80;99.10;;;;;;5033856;28;20116;-68
2023/07/15 10:16:45;;;;;;;3.15;1.65;;;26.80;99.50;;;;;;5031004;28;20048;-67
2023/07/15 10:19:41;;;;;;;2.40;1.48;;;26.80;99.70;;;;;;5033841;28;20037;-69
2023/07/15 10:22:11;;;;;;;1.98;1.70;;;26.70;99.60;;;;;;5033443;28;20045;-68
2023/07/15 10:24:40;;;;;;;2.72;1.92;;;26.60;99.80;;;;;;5031390;28;20045;-68
2023/07/15 10:27:09;;;;;;;2.63;1.50;;;26.50;99.90;;;;;;5033264;28;20037;-67
2023/07/15 10:29:40;;;;;;;1.75;1.40;;;26.40;99.90;;;;;;5033477;28;20099;-67
2023/07/15 10:32:13;;;;;;;3.55;1.77;;;26.30;99.90;;;;;;5033308;28;20045;-68
2023/07/15 10:34:50;;;;;;;2.78;1.55;;;26.30;99.90;;;;;;5023361;28;20049;-67
2023/07/15 10:37:17;;;;;;;2.55;1.60;;;26.20;99.90;;;;;;5030489;28;20399;-67
2023/07/15 10:39:44;;;;;;;2.95;2.10;;;26.20;99.90;;;;;;5031320;28;20038;-67
2023/07/15 10:42:14;;;;;;;3.75;1.50;;;26.10;99.90;;;;;;5031041;28;20083;-67
2023/07/15 10:44:53;;;;;;;3.47;1.60;;;26.00;99.90;;;;;;5031139;28;20038;-68
2023/07/15 10:47:20;;;;;;;2.28;1.60;;;25.90;99.90;;;;;;5031470;28;20487;-67
2023/07/15 10:49:47;;;;;;;3.08;1.60;;;25.90;99.90;;;;;;5031208;28;20095;-67
2023/07/15 10:52:23;;;;;;;2.90;1.65;;;26.00;99.90;;;;;;5029312;28;20033;-68
2023/07/15 10:54:52;;;;;;;5.80;1.50;;;26.30;99.90;;;;;;5021381;28;20042;-67
2023/07/15 10:57:19;;;;;;;3.40;1.60;;;26.60;99.90;;;;;;5029866;28;20041;-68
2023/07/15 10:59:46;;;;;;;3.63;1.35;;;26.90;99.90;;;;;;5030250;28;20450;-67
2023/07/15 11:02:12;;;;;;;1.67;1.40;;;27.20;99.90;;;;;;5053691;22;20033;-66
2023/07/15 11:04:39;;;;;;;2.65;1.40;;;27.40;99.90;;;;;;5047152;28;20034;-66
2023/07/15 11:07:10;;;;;;;2.72;1.77;;;27.40;99.00;;;;;;5051191;28;20142;-66
2023/07/15 11:09:39;;;;;;;;;;;27.30;98.40;;;;;;5049483;28;20064;-66
2023/07/15 11:12:09;;;;;;;2.03;1.60;;;27.00;98.60;;;;;;5042417;28;20011;-66
2023/07/15 11:14:42;;;;;;;3.25;1.60;;;26.90;98.90;;;;;;5022268;28;20048;-66
2023/07/15 11:17:09;;;;;;;2.03;1.83;;;26.80;99.20;;;;;;5028396;28;20102;-66
2023/07/15 11:19:35;;;;;;;3.63;1.80;;;26.70;99.40;;;;;;5023792;28;20480;-66
2023/07/15 11:22:05;;;;;;;2.58;1.70;;;26.50;99.80;;;;;;5030772;28;20033;-66
2023/07/15 11:24:31;;;;;;;5.60;1.80;;;26.30;99.70;;;;;;5027964;28;20045;-65
2023/07/15 11:27:00;;;;;;;2.67;1.50;;;26.10;99.90;;;;;;5030293;28;20415;-65
2023/07/15 11:29:26;;;;;;;3.47;1.65;;;26.00;99.90;;;;;;5031408;28;20133;-66
2023/07/15 11:31:54;;;;;;;1.73;1.42;;;25.90;99.90;;;;;;5028023;28;20034;-66
2023/07/15 11:34:24;;;;;;;3.88;1.50;;;25.80;99.90;;;;;;5026590;28;20041;-66
2023/07/15 11:36:52;;;;;;;1.80;1.50;;;25.70;99.90;;;;;;5030665;28;20033;-66
2023/07/15 11:39:18;;;;;;;5.22;1.85;;;25.60;99.90;;;;;;5031615;28;20065;-66
2023/07/15 11:41:44;;;;;;;2.70;1.58;;;25.50;99.90;;;;;;5028536;28;20033;-66
2023/07/15 11:44:12;;;;;;;3.33;1.50;;;25.40;99.90;;;;;;5030912;28;20025;-66
2023/07/15 11:46:39;;;;;;;2.15;1.52;;;25.40;99.90;;;;;;5023867;28;20041;-66
2023/07/15 11:49:06;;;;;;;4.28;1.73;;;25.30;99.90;;;;;;5029208;28;20454;-66
2023/07/15 11:51:32;;;;;;;4.18;1.90;;;25.30;99.90;;;;;;5030541;28;20400;-66
2023/07/15 11:53:58;;;;;;;3.72;1.48;;;25.30;99.90;;;;;;5029536;28;20094;-66
2023/07/15 11:56:43;;;;;;;3.35;1.60;;;25.30;99.90;;;;;;5025877;28;20632;-66
2023/07/15 11:59:11;;;;;;;3.35;1.70;;;25.30;99.90;;;;;;5028253;28;20060;-66
2023/07/15 12:01:40;;;;;;;4.05;1.98;;;25.30;99.90;;;;;;5025938;28;20732;-66
2023/07/15 12:04:17;;;;;;;1.93;1.40;;;25.30;99.90;;;;;;5028091;28;20065;-65
2023/07/15 12:06:50;;;;;;;2.72;1.92;;;25.30;99.90;;;;;;5022447;28;20045;-66
2023/07/15 12:09:16;;;;;;;3.00;1.70;;;25.20;99.90;;;;;;5024967;28;20037;-66
2023/07/15 12:11:42;;;;;;;3.40;1.80;;;25.20;99.90;;;;;;5026121;28;20043;-66
2023/07/15 12:14:08;;;;;;;3.00;1.60;;;25.30;99.90;;;;;;5027626;28;20056;-66
2023/07/15 12:16:35;;;;;;;2.95;1.85;;;25.50;99.90;;;;;;5010675;28;20495;-66
2023/07/15 12:19:02;;;;;;;2.85;1.70;;;25.70;99.90;;;;;;5030606;28;20439;-66
2023/07/15 12:21:28;;;;;;;2.08;1.63;;;25.80;99.90;;;;;;5031655;28;20040;-66
2023/07/15 12:23:57;;;;;;;4.20;1.50;;;25.80;99.90;;;;;;5029684;28;20511;-66
2023/07/15 12:26:23;;;;;;;3.35;1.60;;;25.70;98.90;;;;;;5026313;28;20072;-66
2023/07/15 12:28:49;;;;;;;1.83;1.35;;;25.60;99.10;;;;;;5033295;28;20492;-66
2023/07/15 12:31:16;;;;;;;2.75;1.40;;;25.60;98.90;;;;;;5019691;28;20038;-66
2023/07/15 12:33:43;;;;;;;2.85;1.65;;;25.60;98.60;;;;;;5028152;28;20064;-64
2023/07/15 12:36:10;;;;;;;4.78;1.90;;;25.50;98.90;;;;;;5036293;28;20046;-64
2023/07/15 12:38:36;;;;;;;2.70;1.52;;;25.40;99.00;;;;;;5034818;28;20049;-64
2023/07/15 12:41:06;;;;;;;2.75;1.30;;;25.40;99.20;;;;;;5031455;28;20068;-64
2023/07/15 12:43:32;;;;;;;2.45;1.65;;;25.30;99.10;;;;;;5031567;28;20037;-64
2023/07/15 12:46:02;;;;;;;3.50;1.40;;;25.30;99.80;;;;;;5033614;28;20513;-64